createdAt,value
2022-08-22T00:01:07.670Z,74.11
2022-08-22T00:02:42.673Z,71.36
2022-08-22T00:03:15.576Z,75.07
2022-08-22T00:03:15.794Z,73.46
2022-08-22T00:03:52.182Z,74.87
2022-08-22T00:06:38.050Z,73.20
2022-08-22T00:09:24.620Z,72.51
2022-08-22T00:12:04.264Z,73.59
2022-08-22T00:14:50.345Z,73.25
2022-08-22T00:17:27.899Z,73.17
2022-08-22T00:20:10.888Z,73.50
2022-08-22T00:23:07.739Z,74.56
2022-08-22T00:25:45.032Z,74.78
2022-08-22T00:28:23.395Z,74.38
2022-08-22T00:30:52.840Z,73.14
2022-08-22T00:33:46.742Z,71.20
2022-08-22T00:36:31.089Z,72.02
2022-08-22T00:39:15.211Z,72.73
2022-08-22T00:42:08.659Z,72.31
2022-08-22T00:45:03.072Z,75.52
2022-08-22T00:48:03.661Z,76.03
2022-08-22T00:51:09.639Z,76.23
2022-08-22T00:53:40.349Z,73.65
2022-08-22T00:56:31.558Z,73.86
2022-08-22T00:59:24.187Z,73.27
2022-08-22T01:02:09.903Z,74.17
2022-08-22T01:05:08.568Z,74.82
2022-08-22T01:07:41.556Z,74.14
2022-08-22T01:10:34.171Z,72.66
2022-08-22T01:13:17.140Z,73.78
2022-08-22T01:15:45.053Z,73.46
2022-08-22T01:18:27.670Z,73.08
2022-08-22T01:21:24.378Z,73.08
2022-08-22T01:24:07.254Z,73.61
2022-08-22T01:27:00.654Z,73.18
2022-08-22T01:29:43.284Z,72.52
2022-08-22T01:32:43.043Z,72.67
2022-08-22T01:35:16.442Z,72.42
2022-08-22T01:38:03.154Z,72.48
2022-08-22T01:41:02.093Z,73.21
2022-08-22T01:43:59.995Z,73.90
2022-08-22T01:46:28.568Z,72.24
2022-08-22T01:49:13.003Z,73.31
2022-08-22T01:51:48.581Z,73.65
2022-08-22T01:54:25.521Z,72.55
2022-08-22T01:56:59.890Z,72.49
2022-08-22T01:59:36.245Z,71.50
2022-08-22T02:02:57.478Z,70.04
2022-08-22T02:05:50.420Z,70.50
2022-08-22T02:08:38.439Z,70.18
2022-08-22T02:11:12.662Z,70.07
2022-08-22T02:14:00.446Z,71.03
2022-08-22T02:16:31.261Z,69.54
2022-08-22T02:19:14.032Z,70.39
2022-08-22T02:21:44.079Z,71.14
2022-08-22T02:24:29.388Z,70.98
2022-08-22T02:27:27.199Z,70.77
2022-08-22T02:30:15.690Z,69.36
2022-08-22T02:32:52.054Z,68.60
2022-08-22T02:35:29.034Z,69.47
2022-08-22T02:38:19.733Z,69.70
2022-08-22T02:41:05.142Z,69.37
2022-08-22T02:43:46.700Z,70.64
2022-08-22T02:46:23.547Z,68.74
2022-08-22T02:49:45.878Z,68.46
2022-08-22T02:52:34.163Z,68.57
2022-08-22T02:55:07.243Z,68.33
2022-08-22T02:57:52.762Z,67.91
2022-08-22T03:00:31.512Z,68.80
2022-08-22T03:03:17.206Z,69.15
2022-08-22T03:05:44.851Z,68.87
2022-08-22T03:08:22.247Z,69.30
2022-08-22T03:11:09.132Z,67.97
2022-08-22T03:14:07.513Z,68.93
2022-08-22T03:17:13.082Z,68.55
2022-08-22T03:19:46.702Z,68.93
2022-08-22T03:22:26.689Z,68.93
2022-08-22T03:25:10.588Z,68.49
2022-08-22T03:27:48.297Z,68.84
2022-08-22T03:30:37.126Z,68.25
2022-08-22T03:33:20.228Z,68.88
2022-08-22T03:35:47.551Z,68.45
2022-08-22T03:38:15.174Z,68.26
2022-08-22T03:41:10.049Z,67.80
2022-08-22T03:43:56.060Z,69.17
2022-08-22T03:47:02.103Z,69.37
2022-08-22T03:49:43.603Z,69.20
2022-08-22T03:52:29.081Z,68.68
2022-08-22T03:55:25.461Z,68.90
2022-08-22T03:58:28.015Z,69.23
2022-08-22T04:01:04.443Z,69.49
2022-08-22T04:03:41.633Z,69.62
2022-08-22T04:06:39.940Z,69.65
2022-08-22T04:09:32.145Z,69.59
2022-08-22T04:12:10.614Z,69.60
2022-08-22T04:14:58.113Z,69.63
2022-08-22T04:17:32.359Z,69.04
2022-08-22T04:20:29.361Z,69.65
2022-08-22T04:23:15.094Z,70.24
2022-08-22T04:25:48.814Z,71.50
2022-08-22T04:28:29.300Z,70.37
2022-08-22T04:31:17.555Z,70.02
2022-08-22T04:33:51.076Z,70.05
2022-08-22T04:36:30.415Z,71.40
2022-08-22T04:39:21.399Z,69.80
2022-08-22T04:41:54.169Z,70.02
2022-08-22T04:44:30.187Z,69.79
2022-08-22T04:47:07.137Z,69.67
2022-08-22T04:49:43.739Z,69.15
2022-08-22T04:52:35.855Z,69.09
2022-08-22T04:55:29.147Z,69.04
2022-08-22T04:58:33.410Z,69.42
2022-08-22T05:01:14.789Z,68.92
2022-08-22T05:03:51.293Z,68.59
2022-08-22T05:06:20.558Z,68.58
2022-08-22T05:08:53.744Z,69.44
2022-08-22T05:11:23.420Z,69.43
2022-08-22T05:13:56.281Z,69.62
2022-08-22T05:16:28.497Z,69.42
2022-08-22T05:19:06.693Z,69.06
2022-08-22T05:21:36.271Z,68.52
2022-08-22T05:24:10.053Z,68.98
2022-08-22T05:26:42.800Z,68.61
2022-08-22T05:29:12.266Z,68.57
2022-08-22T05:32:02.017Z,69.19
2022-08-22T05:34:40.450Z,68.87
2022-08-22T05:37:21.114Z,69.06
2022-08-22T05:39:53.014Z,69.05
2022-08-22T05:42:30.244Z,69.34
2022-08-22T05:44:58.044Z,68.87
2022-08-22T05:47:37.236Z,68.27
2022-08-22T05:50:18.881Z,67.91
2022-08-22T05:53:10.003Z,68.96
2022-08-22T05:55:41.500Z,67.11
2022-08-22T05:58:39.977Z,66.82
2022-08-22T06:01:42.476Z,66.80
2022-08-22T06:04:35.932Z,67.25
2022-08-22T06:07:08.077Z,67.52
2022-08-22T06:09:47.851Z,67.67
2022-08-22T06:12:16.995Z,67.73
2022-08-22T06:15:20.988Z,67.50
2022-08-22T06:18:00.056Z,67.69
2022-08-22T06:20:50.151Z,68.20
2022-08-22T06:23:24.384Z,67.80
2022-08-22T06:25:53.478Z,67.22
2022-08-22T06:28:26.161Z,67.48
2022-08-22T06:30:55.800Z,67.10
2022-08-22T06:33:28.993Z,65.90
2022-08-22T06:36:30.594Z,66.97
2022-08-22T06:39:04.062Z,68.84
2022-08-22T06:41:35.689Z,67.34
2022-08-22T06:44:04.660Z,68.05
2022-08-22T06:46:35.761Z,68.44
2022-08-22T06:49:05.280Z,68.24
2022-08-22T06:51:35.931Z,68.10
2022-08-22T06:54:06.002Z,67.47
2022-08-22T06:56:52.747Z,67.28
2022-08-22T06:59:30.655Z,67.15
2022-08-22T07:02:10.502Z,66.71
2022-08-22T07:04:38.396Z,66.45
2022-08-22T07:07:08.730Z,67.25
2022-08-22T07:09:38.832Z,67.55
2022-08-22T07:12:20.530Z,66.93
2022-08-22T07:14:50.678Z,64.38
2022-08-22T07:17:22.148Z,65.40
2022-08-22T07:20:10.939Z,64.90
2022-08-22T07:22:38.738Z,65.48
2022-08-22T07:25:12.625Z,64.96
2022-08-22T07:27:51.508Z,65.90
2022-08-22T07:30:27.332Z,66.15
2022-08-22T07:33:24.908Z,66.71
2022-08-22T07:36:00.454Z,65.30
2022-08-22T07:38:43.980Z,65.47
2022-08-22T07:41:17.168Z,64.27
2022-08-22T07:43:48.722Z,64.61
2022-08-22T07:46:33.416Z,65.04
2022-08-22T07:49:21.428Z,65.22
2022-08-22T07:51:55.573Z,64.84
2022-08-22T07:54:27.356Z,63.86
2022-08-22T07:57:05.910Z,63.48
2022-08-22T08:06:36.933Z,63.07
2022-08-22T08:09:05.009Z,62.55
2022-08-22T08:11:36.479Z,62.75
2022-08-22T08:14:07.280Z,62.55
2022-08-22T08:17:02.240Z,61.79
2022-08-22T08:19:31.222Z,61.82
2022-08-22T08:21:59.257Z,61.94
2022-08-22T08:24:37.088Z,62.86
2022-08-22T08:27:32.503Z,62.38
2022-08-22T08:30:14.686Z,62.94
2022-08-22T08:32:48.219Z,62.64
2022-08-22T08:35:25.628Z,61.93
2022-08-22T08:38:19.867Z,61.05
2022-08-22T08:41:01.440Z,61.35
2022-08-22T08:43:47.952Z,62.03
2022-08-22T08:46:24.805Z,61.43
2022-08-22T08:49:12.726Z,61.26
2022-08-22T08:51:50.953Z,61.27
2022-08-22T08:54:57.645Z,61.88
2022-08-22T08:57:33.990Z,61.72
2022-08-22T09:00:14.362Z,61.45
2022-08-22T09:03:31.013Z,61.61
2022-08-22T09:06:15.380Z,61.04
2022-08-22T09:09:20.472Z,61.61
2022-08-22T09:11:57.602Z,62.08
2022-08-22T09:14:58.984Z,61.58
2022-08-22T09:18:05.663Z,61.74
2022-08-22T09:20:51.799Z,61.60
2022-08-22T09:23:59.014Z,61.62
2022-08-22T09:26:44.764Z,61.19
2022-08-22T09:29:36.048Z,61.46
2022-08-22T09:32:44.536Z,61.09
2022-08-22T09:35:49.641Z,61.27
2022-08-22T09:38:48.020Z,61.25
2022-08-22T09:41:35.104Z,61.31
2022-08-22T09:44:27.909Z,61.31
2022-08-22T09:47:15.538Z,61.63
2022-08-22T09:50:17.078Z,61.87
2022-08-22T09:52:45.618Z,61.52
2022-08-22T09:55:35.623Z,61.24
2022-08-22T09:58:16.542Z,61.10
2022-08-22T10:01:13.609Z,61.46
2022-08-22T10:04:19.730Z,62.67
2022-08-22T10:07:02.153Z,63.31
2022-08-22T10:09:57.504Z,62.05
2022-08-22T10:12:36.081Z,62.20
2022-08-22T10:15:30.553Z,63.24
2022-08-22T10:18:05.562Z,63.50
2022-08-22T10:20:50.502Z,63.19
2022-08-22T10:23:23.868Z,63.08
2022-08-22T10:26:22.981Z,63.25
2022-08-22T10:29:37.072Z,63.23
2022-08-22T10:32:35.064Z,63.79
2022-08-22T10:35:25.799Z,63.72
2022-08-22T10:37:59.427Z,62.88
2022-08-22T10:40:32.764Z,65.16
2022-08-22T10:43:15.105Z,65.33
2022-08-22T10:45:48.282Z,63.93
2022-08-22T10:48:44.437Z,64.42
2022-08-22T10:51:17.114Z,62.91
2022-08-22T10:54:32.888Z,62.84
2022-08-22T10:57:20.709Z,61.12
2022-08-22T11:00:25.555Z,59.85
2022-08-22T11:03:07.835Z,60.84
2022-08-22T11:05:50.161Z,62.66
2022-08-22T11:08:39.811Z,57.97
2022-08-22T11:11:26.137Z,59.44
2022-08-22T11:14:09.776Z,59.74
2022-08-22T11:17:12.021Z,60.38
2022-08-22T11:20:20.168Z,60.22
2022-08-22T11:23:23.878Z,58.53
2022-08-22T11:26:06.247Z,59.07
2022-08-22T11:28:57.018Z,58.65
2022-08-22T11:31:36.750Z,58.39
2022-08-22T11:34:20.451Z,56.67
2022-08-22T11:36:54.646Z,57.04
2022-08-22T11:39:58.076Z,56.27
2022-08-22T11:43:04.889Z,57.56
2022-08-22T11:45:45.864Z,58.47
2022-08-22T11:48:30.100Z,58.24
2022-08-22T11:51:14.224Z,58.83
2022-08-22T11:54:02.872Z,57.83
2022-08-22T11:56:53.281Z,57.13
2022-08-22T11:59:43.106Z,55.85
2022-08-22T12:02:19.507Z,56.08
2022-08-22T12:04:55.076Z,56.84
2022-08-22T12:07:29.613Z,57.86
2022-08-22T12:10:07.833Z,56.77
2022-08-22T12:13:01.345Z,57.43
2022-08-22T12:16:04.454Z,55.46
2022-08-22T12:18:45.714Z,56.51
2022-08-22T12:21:45.606Z,56.09
2022-08-22T12:24:54.776Z,55.24
2022-08-22T12:27:50.844Z,54.33
2022-08-22T12:30:54.619Z,54.38
2022-08-22T12:33:43.925Z,55.04
2022-08-22T12:36:23.131Z,56.19
2022-08-22T12:38:54.186Z,54.81
2022-08-22T12:42:01.377Z,55.33
2022-08-22T12:44:56.255Z,55.28
2022-08-22T12:48:05.482Z,54.97
2022-08-22T12:50:50.298Z,55.99
2022-08-22T12:53:59.567Z,56.08
2022-08-22T12:56:57.701Z,55.71
2022-08-22T12:59:26.600Z,55.17
2022-08-22T13:01:57.249Z,57.54
2022-08-22T13:04:33.219Z,57.13
2022-08-22T13:07:18.966Z,56.37
2022-08-22T13:09:53.048Z,54.79
2022-08-22T13:12:23.849Z,53.24
2022-08-22T13:15:20.708Z,54.15
2022-08-22T13:17:54.651Z,54.76
2022-08-22T13:20:28.209Z,55.63
2022-08-22T13:22:56.660Z,55.28
2022-08-22T13:25:26.641Z,55.31
2022-08-22T13:27:59.326Z,56.85
2022-08-22T13:30:39.522Z,57.65
2022-08-22T13:33:11.107Z,58.61
2022-08-22T13:35:52.018Z,58.40
2022-08-22T13:38:27.507Z,59.48
2022-08-22T13:40:56.978Z,57.76
2022-08-22T13:43:30.925Z,58.01
2022-08-22T13:46:03.876Z,56.75
2022-08-22T13:48:50.634Z,56.04
2022-08-22T13:51:36.651Z,55.65
2022-08-22T13:54:15.398Z,56.28
2022-08-22T13:57:07.944Z,56.17
2022-08-22T13:59:54.850Z,56.54
2022-08-22T14:02:49.133Z,56.17
2022-08-22T14:05:28.765Z,56.26
2022-08-22T14:08:01.435Z,55.67
2022-08-22T14:10:36.213Z,55.29
2022-08-22T14:13:29.769Z,55.09
2022-08-22T14:16:03.432Z,55.91
2022-08-22T14:18:45.536Z,59.80
2022-08-22T14:21:50.881Z,60.25
2022-08-22T14:24:33.180Z,59.36
2022-08-22T14:27:16.246Z,58.90
2022-08-22T14:29:53.828Z,57.50
2022-08-22T14:32:23.389Z,56.79
2022-08-22T14:35:02.267Z,57.35
2022-08-22T14:37:34.458Z,57.05
2022-08-22T14:40:27.192Z,58.24
2022-08-22T14:43:06.677Z,57.64
2022-08-22T14:45:38.560Z,58.96
2022-08-22T14:48:30.257Z,59.02
2022-08-22T14:51:13.079Z,58.93
2022-08-22T14:53:40.790Z,61.01
2022-08-22T14:56:18.149Z,59.97
2022-08-22T14:58:51.492Z,60.56
2022-08-22T15:01:21.987Z,60.67
2022-08-22T15:04:00.438Z,60.98
2022-08-22T15:06:37.094Z,60.17
2022-08-22T15:09:25.935Z,59.94
2022-08-22T15:11:53.454Z,59.88
2022-08-22T15:15:03.303Z,61.15
2022-08-22T15:17:43.988Z,58.90
2022-08-22T15:20:36.294Z,59.59
2022-08-22T15:23:21.363Z,58.35
2022-08-22T15:26:13.324Z,58.55
2022-08-22T15:28:52.333Z,60.23
2022-08-22T15:31:21.513Z,59.88
2022-08-22T15:33:51.920Z,61.24
2022-08-22T15:36:26.212Z,59.38
2022-08-22T15:39:28.970Z,60.24
2022-08-22T15:41:57.391Z,61.82
2022-08-22T15:44:33.550Z,62.79
2022-08-22T15:47:10.662Z,63.28
2022-08-22T15:49:58.516Z,61.99
2022-08-22T15:52:29.144Z,63.75
2022-08-22T15:55:10.790Z,63.26
2022-08-22T15:57:40.715Z,61.88
2022-08-22T16:00:33.208Z,63.20
2022-08-22T16:03:25.637Z,62.54
2022-08-22T16:05:56.986Z,64.98
2022-08-22T16:08:29.618Z,63.15
2022-08-22T16:11:03.879Z,64.33
2022-08-22T16:13:39.432Z,64.04
2022-08-22T16:16:45.583Z,63.24
2022-08-22T16:19:26.035Z,65.07
2022-08-22T16:21:54.245Z,63.00
2022-08-22T16:24:22.116Z,63.83
2022-08-22T16:26:50.119Z,64.64
2022-08-22T16:29:35.905Z,64.50
2022-08-22T16:32:11.587Z,64.96
2022-08-22T16:34:43.942Z,66.53
2022-08-22T16:37:17.815Z,65.94
2022-08-22T16:39:50.322Z,65.56
2022-08-22T16:42:25.188Z,65.45
2022-08-22T16:44:58.953Z,64.90
2022-08-22T16:47:41.808Z,65.49
2022-08-22T16:50:15.568Z,65.17
2022-08-22T16:52:58.562Z,65.92
2022-08-22T16:55:28.894Z,65.08
2022-08-22T16:58:55.770Z,65.06
2022-08-22T17:02:04.811Z,64.39
2022-08-22T17:05:07.066Z,65.90
2022-08-22T17:07:52.796Z,67.42
2022-08-22T17:10:39.147Z,67.50
2022-08-22T17:13:26.519Z,68.45
2022-08-22T17:16:17.426Z,67.58
2022-08-22T17:19:05.464Z,67.23
2022-08-22T17:21:40.527Z,67.10
2022-08-22T17:24:32.176Z,66.12
2022-08-22T17:27:28.995Z,65.14
2022-08-22T17:30:07.517Z,65.47
2022-08-22T17:33:13.473Z,64.82
2022-08-22T17:35:46.039Z,66.41
2022-08-22T17:38:45.824Z,65.67
2022-08-22T17:41:19.675Z,65.41
2022-08-22T17:43:57.944Z,66.72
2022-08-22T17:46:47.384Z,66.75
2022-08-22T17:49:28.923Z,65.24
2022-08-22T17:52:19.094Z,67.05
2022-08-22T17:54:58.721Z,67.64
2022-08-22T17:57:36.135Z,68.11
2022-08-22T18:00:17.154Z,67.12
2022-08-22T18:02:51.438Z,67.99
2022-08-22T18:05:25.095Z,67.95
2022-08-22T18:11:14.888Z,66.61
2022-08-22T18:14:09.566Z,67.45
2022-08-22T18:16:53.594Z,68.26
2022-08-22T18:20:04.276Z,66.39
2022-08-22T18:22:34.825Z,66.89
2022-08-22T18:25:21.284Z,66.15
2022-08-22T18:27:49.133Z,66.43
2022-08-22T18:30:23.965Z,67.03
2022-08-22T18:33:06.625Z,66.80
2022-08-22T18:35:45.175Z,65.97
2022-08-22T18:38:23.763Z,67.83
2022-08-22T18:40:59.852Z,67.28
2022-08-22T18:43:50.943Z,68.70
2022-08-22T18:46:39.914Z,68.86
2022-08-22T18:49:36.222Z,69.48
2022-08-22T18:52:16.809Z,68.10
2022-08-22T18:55:03.634Z,68.41
2022-08-22T18:58:09.580Z,68.29
2022-08-22T19:01:15.875Z,68.84
2022-08-22T19:04:02.970Z,67.42
2022-08-22T19:06:53.228Z,67.59
2022-08-22T19:09:47.395Z,68.18
2022-08-22T19:12:28.012Z,68.69
2022-08-22T19:15:34.878Z,67.83
2022-08-22T19:18:24.144Z,66.16
2022-08-22T19:21:41.228Z,67.93
2022-08-22T19:24:34.946Z,71.02
2022-08-22T19:27:18.582Z,70.05
2022-08-22T19:29:46.525Z,69.77
2022-08-22T19:33:00.783Z,70.04
2022-08-22T19:35:41.368Z,68.20
2022-08-22T19:38:52.397Z,69.07
2022-08-22T19:41:40.101Z,67.84
2022-08-22T19:44:20.277Z,69.02
2022-08-22T19:47:02.829Z,68.29
2022-08-22T19:49:34.530Z,69.00
2022-08-22T19:52:12.416Z,66.94
2022-08-22T19:55:06.808Z,67.21
2022-08-22T19:57:55.632Z,68.11
2022-08-22T20:00:41.495Z,67.60
2022-08-22T20:03:32.787Z,69.65
2022-08-22T20:06:13.795Z,67.63
2022-08-22T20:09:11.034Z,68.08
2022-08-22T20:11:54.621Z,68.47
2022-08-22T20:14:37.209Z,68.59
2022-08-22T20:17:34.544Z,67.82
2022-08-22T20:20:18.899Z,68.47
2022-08-22T20:23:14.064Z,67.47
2022-08-22T20:25:49.057Z,67.47
2022-08-22T20:28:46.207Z,67.10
2022-08-22T20:31:24.388Z,68.03
2022-08-22T20:34:07.144Z,69.31
2022-08-22T20:36:35.649Z,70.58
2022-08-22T20:39:08.798Z,69.16
2022-08-22T20:41:42.074Z,69.45
2022-08-22T20:44:13.109Z,69.19
2022-08-22T20:46:46.901Z,68.65
2022-08-22T20:49:28.891Z,68.87
2022-08-22T20:51:59.929Z,68.63
2022-08-22T20:54:34.081Z,68.37
2022-08-22T20:57:23.884Z,68.43
2022-08-22T21:00:14.256Z,68.86
2022-08-22T21:02:54.821Z,68.84
2022-08-22T21:05:32.908Z,68.42
2022-08-22T21:08:10.362Z,70.73
2022-08-22T21:10:57.839Z,69.06
2022-08-22T21:13:28.394Z,69.64
2022-08-22T21:16:00.185Z,68.68
2022-08-22T21:18:31.179Z,68.55
2022-08-22T21:21:25.554Z,68.73
2022-08-22T21:24:00.863Z,69.06
2022-08-22T21:26:33.296Z,69.45
2022-08-22T21:29:07.755Z,69.49
2022-08-22T21:31:53.827Z,68.80
2022-08-22T21:34:35.805Z,67.55
2022-08-22T21:37:09.160Z,67.85
2022-08-22T21:39:42.822Z,68.53
2022-08-22T21:42:38.542Z,67.64
2022-08-22T21:45:06.715Z,68.16
2022-08-22T21:47:37.034Z,68.89
2022-08-22T21:50:26.045Z,68.75
2022-08-22T21:52:53.654Z,68.88
2022-08-22T21:55:30.275Z,70.31
2022-08-22T21:58:07.162Z,69.63
2022-08-22T22:01:21.063Z,71.51
2022-08-22T22:03:54.096Z,70.20
2022-08-22T22:06:21.603Z,69.59
2022-08-22T22:08:49.191Z,69.25
2022-08-22T22:11:17.335Z,70.99
2022-08-22T22:13:45.292Z,71.42
2022-08-22T22:16:14.081Z,70.69
2022-08-22T22:18:44.230Z,70.68
2022-08-22T22:21:15.291Z,69.48
2022-08-22T22:23:50.830Z,68.42
2022-08-22T22:26:21.016Z,68.28
2022-08-22T22:28:50.218Z,67.87
2022-08-22T22:31:18.352Z,69.27
2022-08-22T22:33:46.090Z,68.75
2022-08-22T22:36:17.959Z,68.87
2022-08-22T22:38:48.376Z,68.89
2022-08-22T22:41:21.272Z,68.59
2022-08-22T22:43:48.709Z,70.70
2022-08-22T22:46:16.155Z,70.19
2022-08-22T22:48:43.960Z,70.09
2022-08-22T22:51:12.345Z,69.93
2022-08-22T22:53:40.321Z,69.72
2022-08-22T22:56:17.792Z,68.96
2022-08-22T22:58:50.728Z,69.15
2022-08-22T23:01:28.585Z,68.82
2022-08-22T23:03:57.567Z,69.22
2022-08-22T23:06:27.138Z,69.68
2022-08-22T23:08:57.919Z,71.47
2022-08-22T23:11:28.065Z,70.76
2022-08-22T23:13:56.116Z,70.69
2022-08-22T23:16:27.312Z,69.97
2022-08-22T23:18:55.309Z,68.80
2022-08-22T23:21:29.292Z,69.67
2022-08-22T23:23:58.642Z,68.34
2022-08-22T23:26:27.174Z,68.59
2022-08-22T23:28:54.947Z,67.77
2022-08-22T23:31:38.957Z,67.89
2022-08-22T23:34:08.934Z,67.84
2022-08-22T23:36:37.441Z,67.66
2022-08-22T23:39:06.455Z,69.07
2022-08-22T23:41:34.736Z,68.47
2022-08-22T23:44:04.666Z,68.29
2022-08-22T23:46:32.115Z,66.96
2022-08-22T23:49:01.818Z,67.98
2022-08-22T23:51:29.288Z,69.86
2022-08-22T23:53:57.652Z,69.37
2022-08-22T23:56:32.091Z,68.28
2022-08-22T23:59:01.446Z,68.29
